Time;durP1;ratioP1;P1;durP2;ratioP2;P2;SDS_P1;SDS_P2;PMS_P1;PMS_P2;Temp;Humidity;BMP_temperature;BMP_pressure;BME280_temperature;BME280_humidity;BME280_pressure;Samples;Min_cycle;Max_cycle;Signal;HPM_P1;HPM_P2
2021/04/06 00:00:41;;;;;;;3.45;1.95;;;1.70;99.90;;;;;;5031489;28;20628;-38
2021/04/06 00:03:10;;;;;;;3.90;2.40;;;1.70;99.90;;;;;;5031813;28;20378;-39
2021/04/06 00:05:40;;;;;;;3.60;2.63;;;1.60;99.90;;;;;;5031655;28;20251;-39
2021/04/06 00:08:07;;;;;;;3.42;2.15;;;1.60;99.90;;;;;;5031527;28;20668;-39
2021/04/06 00:10:42;;;;;;;3.00;2.80;;;1.60;99.60;;;;;;5031507;28;20295;-40
2021/04/06 00:13:10;;;;;;;7.90;2.33;;;1.60;99.70;;;;;;5031419;28;20319;-40
2021/04/06 00:15:39;;;;;;;5.03;2.22;;;1.60;99.80;;;;;;5031354;28;20538;-39
2021/04/06 00:18:08;;;;;;;8.52;2.50;;;1.70;99.80;;;;;;5031510;28;20307;-39
2021/04/06 00:20:38;;;;;;;4.00;2.40;;;1.70;99.70;;;;;;5031461;28;20579;-40
2021/04/06 00:23:08;;;;;;;5.10;2.70;;;1.80;99.70;;;;;;5031236;28;20268;-40
2021/04/06 00:25:39;;;;;;;2.67;2.05;;;1.80;99.70;;;;;;5031212;28;20248;-39
2021/04/06 00:28:11;;;;;;;4.93;2.40;;;1.80;99.90;;;;;;5031365;28;20308;-39
2021/04/06 00:30:40;;;;;;;4.75;2.53;;;1.80;99.80;;;;;;5031393;28;20205;-39
2021/04/06 00:33:12;;;;;;;8.88;4.80;;;1.80;99.90;;;;;;5033268;28;20260;-39
2021/04/06 00:35:40;;;;;;;6.05;2.47;;;1.70;99.90;;;;;;5035020;28;20217;-39
2021/04/06 00:38:11;;;;;;;5.03;2.83;;;1.80;99.90;;;;;;5034899;28;20746;-40
2021/04/06 00:40:43;;;;;;;2.58;2.38;;;1.70;99.90;;;;;;5035024;28;20292;-40
2021/04/06 00:43:12;;;;;;;3.53;2.22;;;1.70;99.90;;;;;;5034887;28;20664;-40
2021/04/06 00:45:43;;;;;;;3.50;2.35;;;1.70;99.90;;;;;;5034813;28;20208;-40
2021/04/06 00:48:12;;;;;;;3.42;2.10;;;1.60;99.90;;;;;;5034687;28;20216;-40
2021/04/06 00:50:45;;;;;;;4.15;2.28;;;1.60;99.90;;;;;;5034579;28;20619;-41
2021/04/06 00:53:12;;;;;;;3.30;2.38;;;1.60;99.90;;;;;;5034781;28;20339;-41
2021/04/06 00:55:41;;;;;;;6.93;3.00;;;1.50;99.90;;;;;;5034715;28;20208;-39
2021/04/06 00:58:11;;;;;;;4.65;3.33;;;1.50;99.90;;;;;;5034755;28;20304;-41
2021/04/06 01:00:39;;;;;;;4.35;2.78;;;1.50;99.90;;;;;;5034542;28;20255;-41
2021/04/06 01:03:08;;;;;;;15.65;8.35;;;1.40;99.90;;;;;;5034699;28;20283;-40
2021/04/06 01:05:56;;;;;;;4.05;2.42;;;1.40;99.90;;;;;;5034936;28;20647;-41
2021/04/06 01:08:26;;;;;;;5.80;2.70;;;1.30;99.90;;;;;;5034146;28;20739;-39
2021/04/06 01:10:53;;;;;;;7.32;3.40;;;1.30;99.90;;;;;;5034330;28;20295;-38
2021/04/06 01:13:21;;;;;;;4.38;3.08;;;1.30;99.90;;;;;;5034652;28;20266;-39
2021/04/06 01:15:48;;;;;;;3.53;3.22;;;1.30;99.90;;;;;;5034419;28;20236;-39
2021/04/06 01:18:16;;;;;;;5.90;2.72;;;1.30;99.90;;;;;;5034474;28;20215;-38
2021/04/06 01:20:43;;;;;;;5.95;3.58;;;1.30;99.90;;;;;;5034622;28;20246;-39
2021/04/06 01:23:11;;;;;;;3.35;2.60;;;1.20;99.90;;;;;;5034214;28;20315;-40
2021/04/06 01:25:44;;;;;;;3.67;2.80;;;1.20;99.90;;;;;;5034445;28;20252;-39
2021/04/06 01:28:12;;;;;;;3.85;2.45;;;1.20;99.90;;;;;;5034288;28;20244;-39
2021/04/06 01:30:45;;;;;;;9.20;6.95;;;1.10;99.90;;;;;;5034136;28;20213;-38
2021/04/06 01:33:12;;;;;;;12.88;8.32;;;1.10;99.90;;;;;;5034210;28;20279;-39
2021/04/06 01:35:43;;;;;;;4.10;3.05;;;1.10;99.90;;;;;;5034296;28;20209;-39
2021/04/06 01:38:12;;;;;;;5.70;3.58;;;1.10;99.90;;;;;;5034067;28;20307;-39
2021/04/06 01:40:39;;;;;;;3.72;2.80;;;1.10;99.90;;;;;;5034047;28;20291;-39
2021/04/06 01:43:09;;;;;;;3.05;2.47;;;1.10;99.90;;;;;;5033872;28;20656;-39
2021/04/06 01:45:43;;;;;;;5.57;3.17;;;1.10;99.90;;;;;;5033159;28;20255;-39
2021/04/06 01:48:11;;;;;;;6.00;3.60;;;1.10;99.90;;;;;;5034334;28;20286;-40
2021/04/06 01:50:39;;;;;;;3.85;3.25;;;1.10;99.90;;;;;;5033756;28;20705;-39
2021/04/06 01:53:06;;;;;;;3.78;3.10;;;1.10;99.90;;;;;;5033635;28;20224;-39
2021/04/06 01:55:37;;;;;;;5.03;3.20;;;1.00;99.90;;;;;;5033750;28;20322;-39
2021/04/06 01:58:05;;;;;;;4.78;3.20;;;1.00;99.90;;;;;;5033875;28;20230;-39
2021/04/06 02:00:39;;;;;;;5.97;3.50;;;1.00;99.90;;;;;;5033694;28;20215;-39
2021/04/06 02:03:10;;;;;;;3.85;3.35;;;1.00;99.90;;;;;;5033632;28;20208;-39
2021/04/06 02:05:37;;;;;;;4.68;3.38;;;1.00;99.90;;;;;;5033395;28;20212;-39
2021/04/06 02:08:09;;;;;;;4.28;3.80;;;1.00;99.90;;;;;;5033477;28;20213;-38
2021/04/06 02:10:38;;;;;;;7.70;4.97;;;1.00;99.90;;;;;;5033741;28;20652;-38
2021/04/06 02:13:10;;;;;;;3.47;3.17;;;0.90;99.90;;;;;;5033288;28;20705;-40
2021/04/06 02:15:39;;;;;;;4.95;3.25;;;0.90;99.90;;;;;;5033549;28;20235;-39
2021/04/06 02:18:06;;;;;;;4.10;3.35;;;0.90;99.90;;;;;;5033324;28;20213;-40
2021/04/06 02:20:33;;;;;;;3.97;2.85;;;0.90;99.90;;;;;;5033425;28;20246;-39
2021/04/06 02:23:03;;;;;;;3.20;2.92;;;1.00;99.90;;;;;;5033271;28;20332;-39
2021/04/06 02:25:31;;;;;;;4.65;3.70;;;1.00;99.90;;;;;;5033352;28;20296;-39
2021/04/06 02:27:59;;;;;;;4.20;3.58;;;1.00;99.90;;;;;;5033227;28;20667;-39
2021/04/06 02:30:32;;;;;;;3.70;3.22;;;0.90;99.90;;;;;;5033124;28;20236;-39
2021/04/06 02:33:00;;;;;;;6.95;3.15;;;0.90;99.90;;;;;;5033099;28;20209;-39
2021/04/06 02:35:27;;;;;;;4.15;2.90;;;1.00;99.90;;;;;;5033236;28;20220;-39
2021/04/06 02:37:55;;;;;;;5.93;3.67;;;1.00;99.90;;;;;;5032941;28;20574;-40
2021/04/06 02:40:25;;;;;;;6.57;3.03;;;1.00;99.90;;;;;;5032848;28;20295;-38
2021/04/06 02:42:56;;;;;;;3.92;3.60;;;0.90;99.90;;;;;;5032911;28;20266;-40
2021/04/06 02:45:26;;;;;;;4.57;3.20;;;0.90;99.90;;;;;;5032688;28;20714;-39
2021/04/06 02:47:55;;;;;;;7.40;3.25;;;0.90;99.90;;;;;;5032698;28;20664;-40
2021/04/06 02:50:23;;;;;;;3.95;3.47;;;0.90;99.90;;;;;;5032801;28;20209;-42
2021/04/06 02:52:51;;;;;;;5.10;3.40;;;0.90;99.90;;;;;;5032859;28;20573;-38
2021/04/06 02:55:20;;;;;;;5.60;3.78;;;0.80;99.90;;;;;;5037580;28;20272;-37
2021/04/06 02:57:48;;;;;;;5.57;3.33;;;0.80;99.90;;;;;;5032573;28;20259;-41
2021/04/06 03:00:32;;;;;;;6.50;3.53;;;0.80;99.90;;;;;;5032700;28;20208;-40
2021/04/06 03:03:01;;;;;;;6.90;3.90;;;0.80;99.90;;;;;;5032562;28;20295;-40
2021/04/06 03:05:29;;;;;;;4.97;3.40;;;0.80;99.90;;;;;;5032496;28;20667;-41
2021/04/06 03:07:56;;;;;;;8.25;3.65;;;0.80;99.90;;;;;;5032544;28;20295;-41
2021/04/06 03:10:23;;;;;;;4.32;3.42;;;0.80;99.90;;;;;;5032676;28;20303;-41
2021/04/06 03:12:50;;;;;;;4.90;3.53;;;0.70;99.90;;;;;;5033799;28;20663;-40
2021/04/06 03:15:23;;;;;;;5.65;4.97;;;0.70;99.90;;;;;;5032366;28;20689;-41
2021/04/06 03:17:54;;;;;;;6.57;4.43;;;0.70;99.90;;;;;;5032278;28;20742;-40
2021/04/06 03:20:22;;;;;;;5.15;4.10;;;0.70;99.90;;;;;;5032607;28;20236;-41
2021/04/06 03:22:50;;;;;;;4.00;3.42;;;0.60;99.90;;;;;;5032271;28;20378;-41
2021/04/06 03:25:17;;;;;;;9.25;3.85;;;0.60;99.90;;;;;;5032374;28;20597;-40
2021/04/06 03:27:46;;;;;;;4.13;3.50;;;0.60;99.90;;;;;;5032209;28;20231;-42
2021/04/06 03:30:31;;;;;;;3.55;3.25;;;0.60;99.90;;;;;;5032027;28;20695;-41
2021/04/06 03:33:01;;;;;;;5.65;3.75;;;0.50;99.90;;;;;;5032112;28;20235;-40
2021/04/06 03:35:28;;;;;;;3.90;3.17;;;0.50;99.90;;;;;;5032020;28;20747;-40
2021/04/06 03:37:56;;;;;;;9.65;3.75;;;0.40;99.90;;;;;;5031884;28;20251;-42
2021/04/06 03:40:23;;;;;;;4.75;3.60;;;0.40;99.90;;;;;;5047082;28;20300;-42
2021/04/06 03:42:50;;;;;;;5.10;3.85;;;0.40;99.90;;;;;;5032100;28;20211;-41
2021/04/06 03:45:18;;;;;;;6.47;4.22;;;0.40;99.90;;;;;;5031834;28;20215;-41
2021/04/06 03:51:31;;;;;;;6.03;3.63;;;0.40;99.90;;;;;;4990410;28;20269;-40
2021/04/06 03:53:58;;;;;;;4.85;3.80;;;0.30;99.90;;;;;;4996508;28;20561;-40
2021/04/06 03:56:29;;;;;;;6.07;3.75;;;0.30;99.90;;;;;;5032249;28;20250;-39
2021/04/06 04:02:38;;;;;;;4.60;3.40;;;0.30;99.90;;;;;;5031786;28;20254;-41
2021/04/06 04:05:06;;;;;;;4.18;3.22;;;0.30;99.90;;;;;;5031976;28;20204;-39
2021/04/06 04:07:34;;;;;;;5.00;3.70;;;0.30;99.90;;;;;;5032797;28;20209;-39
2021/04/06 04:10:02;;;;;;;3.88;3.38;;;0.30;99.90;;;;;;5035716;28;20705;-39
2021/04/06 04:12:29;;;;;;;5.57;3.92;;;0.30;99.90;;;;;;5035562;28;20327;-39
2021/04/06 04:14:58;;;;;;;5.40;3.83;;;0.20;99.90;;;;;;5036059;28;20235;-38
2021/04/06 04:17:25;;;;;;;4.95;3.72;;;0.20;99.90;;;;;;5035898;28;20215;-39
2021/04/06 04:19:53;;;;;;;5.35;3.60;;;0.20;99.90;;;;;;5035618;28;20308;-39
2021/04/06 04:22:20;;;;;;;9.55;5.07;;;0.20;99.90;;;;;;5035577;28;20600;-39
2021/04/06 04:28:28;;;;;;;6.47;4.55;;;0.20;99.90;;;;;;5035534;28;20268;-39
2021/04/06 04:30:57;;;;;;;5.32;3.13;;;0.20;99.90;;;;;;5035448;28;20213;-39
2021/04/06 04:33:24;;;;;;;7.57;3.00;;;0.20;99.90;;;;;;5035259;28;20256;-40
2021/04/06 04:35:51;;;;;;;3.72;3.35;;;0.20;99.90;;;;;;5035084;28;20213;-39
2021/04/06 04:38:18;;;;;;;5.32;3.25;;;0.10;99.90;;;;;;5035423;28;20303;-38
2021/04/06 04:40:45;;;;;;;5.97;3.60;;;0.10;99.90;;;;;;5035291;28;20232;-39
2021/04/06 04:46:53;;;;;;;4.85;3.05;;;0.10;99.90;;;;;;5035203;28;20191;-39
2021/04/06 04:49:20;;;;;;;5.20;3.40;;;0.00;99.90;;;;;;5035183;28;20514;-39
2021/04/06 04:51:47;;;;;;;3.95;2.90;;;-0.10;99.90;;;;;;5034865;28;20676;-39
2021/04/06 04:54:14;;;;;;;6.97;3.53;;;-0.10;99.90;;;;;;5034911;28;20239;-39
2021/04/06 04:56:41;;;;;;;6.88;3.25;;;-0.10;99.90;;;;;;5034534;28;20212;-39
2021/04/06 04:59:08;;;;;;;4.70;3.20;;;-0.10;99.90;;;;;;5034870;28;20621;-39
2021/04/06 05:01:36;;;;;;;5.20;3.13;;;0.00;99.90;;;;;;5035080;28;20208;-39
2021/04/06 05:04:04;;;;;;;3.15;2.67;;;0.00;99.90;;;;;;5034873;28;20304;-40
2021/04/06 05:06:31;;;;;;;5.47;3.45;;;0.00;99.90;;;;;;5034852;28;20213;-41
2021/04/06 05:09:03;;;;;;;4.15;3.20;;;0.10;99.90;;;;;;5034900;28;20308;-38
2021/04/06 05:11:30;;;;;;;3.00;2.80;;;0.00;99.90;;;;;;5034941;28;20213;-39
2021/04/06 05:13:57;;;;;;;4.68;3.72;;;0.00;99.90;;;;;;5034651;28;20306;-38
2021/04/06 05:16:24;;;;;;;7.30;3.50;;;0.00;99.90;;;;;;5034354;28;20208;-39
2021/04/06 05:18:51;;;;;;;5.20;3.20;;;0.10;99.90;;;;;;5034395;28;20697;-39
2021/04/06 05:21:19;;;;;;;10.32;3.50;;;0.20;99.90;;;;;;5035966;28;20301;-38
2021/04/06 05:23:47;;;;;;;6.80;3.20;;;0.40;99.90;;;;;;5034931;28;20355;-38
2021/04/06 05:26:13;;;;;;;7.28;3.20;;;0.50;99.90;;;;;;5035119;28;20276;-38
2021/04/06 05:28:40;;;;;;;4.70;2.90;;;0.50;99.90;;;;;;5034791;28;20236;-39
2021/04/06 05:31:07;;;;;;;5.45;3.15;;;0.60;99.90;;;;;;5034759;28;20209;-40
2021/04/06 05:33:35;;;;;;;5.70;3.65;;;0.60;99.90;;;;;;5034545;28;20229;-39
2021/04/06 05:36:02;;;;;;;8.00;3.30;;;0.70;99.90;;;;;;5034832;28;20213;-40
2021/04/06 05:38:30;;;;;;;5.97;3.25;;;0.70;99.90;;;;;;5034728;28;20236;-39
2021/04/06 05:40:57;;;;;;;5.22;3.08;;;0.80;99.90;;;;;;5034272;28;20299;-40
2021/04/06 05:43:25;;;;;;;4.85;3.30;;;0.80;99.90;;;;;;5034230;28;20240;-39
2021/04/06 05:45:53;;;;;;;5.00;3.22;;;0.90;99.90;;;;;;5032709;28;21029;-39
2021/04/06 05:48:22;;;;;;;5.45;3.45;;;1.00;99.90;;;;;;5034052;28;20209;-49
2021/04/06 05:50:52;;;;;;;6.40;3.45;;;1.00;99.90;;;;;;5033958;28;20354;-39
2021/04/06 05:53:20;;;;;;;3.92;3.28;;;1.00;99.90;;;;;;5033869;28;20229;-39
2021/04/06 05:55:48;;;;;;;3.08;2.78;;;1.00;99.90;;;;;;5033914;28;20212;-39
2021/04/06 05:58:15;;;;;;;4.55;4.15;;;0.90;99.90;;;;;;5033605;28;20630;-39
2021/04/06 06:00:42;;;;;;;5.93;3.72;;;0.80;99.90;;;;;;5033633;28;20235;-40
2021/04/06 06:03:10;;;;;;;4.78;3.33;;;0.80;99.90;;;;;;5033707;28;20215;-41
2021/04/06 06:05:37;;;;;;;4.38;3.97;;;0.90;99.90;;;;;;5033774;28;20719;-39
2021/04/06 06:08:09;;;;;;;6.40;3.80;;;0.80;99.90;;;;;;5033683;28;20658;-40
2021/04/06 06:10:37;;;;;;;4.25;2.92;;;0.90;99.90;;;;;;5033776;28;20282;-39
2021/04/06 06:13:17;;;;;;;5.65;3.50;;;0.90;99.90;;;;;;5033580;28;20661;-39
2021/04/06 06:16:21;;;;;;;5.72;4.00;;;0.90;99.90;;;;;;5033382;28;20208;-39
2021/04/06 06:18:54;;;;;;;7.05;3.58;;;1.00;99.90;;;;;;5033507;28;20209;-38
2021/04/06 06:21:22;;;;;;;3.47;3.17;;;1.20;99.90;;;;;;5033402;28;20208;-38
2021/04/06 06:23:50;;;;;;;7.22;3.58;;;1.20;99.70;;;;;;5033291;28;20240;-39
2021/04/06 06:26:18;;;;;;;7.65;4.35;;;1.30;99.60;;;;;;5033349;28;20349;-39
2021/04/06 06:29:10;;;;;;;3.80;3.40;;;1.40;99.50;;;;;;5033307;28;20233;-39
2021/04/06 06:31:42;;;;;;;4.35;3.90;;;1.50;99.20;;;;;;5032941;28;20212;-39
2021/04/06 06:34:25;;;;;;;6.05;3.33;;;1.60;99.10;;;;;;5033100;28;20224;-40
2021/04/06 06:37:14;;;;;;;7.43;3.42;;;1.60;98.70;;;;;;5033074;28;20536;-40
2021/04/06 06:39:48;;;;;;;4.78;3.70;;;1.60;98.40;;;;;;5033127;28;20645;-39
2021/04/06 06:42:18;;;;;;;9.75;4.18;;;1.60;98.60;;;;;;5033074;28;20215;-38
2021/04/06 06:44:46;;;;;;;4.25;3.30;;;1.50;98.60;;;;;;5032864;28;20209;-39
2021/04/06 06:47:33;;;;;;;5.50;3.67;;;1.50;98.50;;;;;;5032786;28;20492;-39
2021/04/06 06:50:09;;;;;;;7.72;3.40;;;1.50;98.60;;;;;;5032682;28;20209;-38
2021/04/06 06:52:57;;;;;;;3.13;2.72;;;1.60;98.50;;;;;;5032681;28;20232;-39
2021/04/06 06:55:25;;;;;;;3.58;3.20;;;1.60;98.30;;;;;;5032472;28;20263;-38
2021/04/06 06:58:01;;;;;;;8.60;3.67;;;1.70;98.20;;;;;;5032269;28;20220;-40
2021/04/06 07:00:29;;;;;;;4.45;2.83;;;1.70;97.90;;;;;;5032577;28;20299;-39
2021/04/06 07:02:56;;;;;;;5.57;3.22;;;1.80;97.80;;;;;;5032403;28;20283;-39
2021/04/06 07:05:25;;;;;;;4.07;3.10;;;1.90;97.60;;;;;;5032194;28;20243;-38
2021/04/06 07:07:58;;;;;;;3.60;3.20;;;2.00;97.60;;;;;;5032279;28;20217;-39
2021/04/06 07:10:28;;;;;;;5.63;3.13;;;2.10;97.30;;;;;;5032412;28;20208;-41
2021/04/06 07:13:11;;;;;;;2.80;2.47;;;2.20;97.00;;;;;;5032091;28;20730;-40
2021/04/06 07:15:44;;;;;;;3.28;2.67;;;2.20;96.70;;;;;;5032196;28;20220;-38
2021/04/06 07:18:14;;;;;;;5.47;3.80;;;2.30;96.80;;;;;;5031914;28;20209;-40
2021/04/06 07:20:43;;;;;;;6.43;3.03;;;2.40;96.60;;;;;;5032190;28;20302;-40
2021/04/06 07:23:17;;;;;;;5.97;2.75;;;2.50;96.50;;;;;;5031912;28;20237;-39
2021/04/06 07:25:45;;;;;;;3.40;3.08;;;2.60;96.30;;;;;;5032016;28;20632;-40
2021/04/06 07:28:16;;;;;;;7.43;2.83;;;2.50;96.00;;;;;;5031995;28;20212;-39
2021/04/06 07:30:45;;;;;;;6.57;3.20;;;2.60;96.40;;;;;;5031960;28;20212;-40
2021/04/06 07:33:14;;;;;;;3.45;2.92;;;2.70;96.20;;;;;;5031785;28;20266;-40
2021/04/06 07:35:43;;;;;;;6.63;3.97;;;2.90;96.10;;;;;;5031890;28;20212;-40
2021/04/06 07:38:11;;;;;;;5.82;3.25;;;3.10;95.90;;;;;;5031987;28;20212;-39
2021/04/06 07:40:39;;;;;;;8.63;4.35;;;3.30;95.30;;;;;;5031703;28;20254;-40
2021/04/06 07:43:06;;;;;;;4.60;3.67;;;3.60;95.20;;;;;;5031003;28;20240;-40
2021/04/06 07:45:44;;;;;;;4.32;2.72;;;3.80;94.80;;;;;;5031854;28;20306;-39
2021/04/06 07:48:43;;;;;;;6.65;3.50;;;3.80;93.90;;;;;;5031767;28;20233;-39
2021/04/06 07:51:16;;;;;;;6.53;4.20;;;3.70;94.30;;;;;;5031672;28;20265;-39
2021/04/06 07:54:11;;;;;;;3.50;2.95;;;3.50;94.40;;;;;;5031278;28;20673;-39
2021/04/06 07:56:54;;;;;;;5.60;2.80;;;3.40;94.20;;;;;;5008085;28;20295;-39
2021/04/06 07:59:42;;;;;;;5.57;3.55;;;3.40;94.50;;;;;;5031715;28;20259;-40
2021/04/06 08:02:47;;;;;;;5.20;3.50;;;3.40;94.60;;;;;;5031326;28;20213;-39
2021/04/06 08:05:24;;;;;;;5.32;3.42;;;3.50;94.60;;;;;;5031659;28;20299;-39
2021/04/06 08:07:51;;;;;;;5.72;3.28;;;3.60;94.60;;;;;;5031386;28;20251;-40
2021/04/06 08:10:42;;;;;;;5.57;3.30;;;3.70;94.40;;;;;;5031441;28;20556;-40
2021/04/06 08:13:11;;;;;;;5.55;3.08;;;3.70;94.30;;;;;;5031400;28;20323;-39
2021/04/06 08:15:38;;;;;;;6.43;3.60;;;3.70;94.40;;;;;;5031214;28;20244;-39
2021/04/06 08:18:07;;;;;;;6.13;3.40;;;3.80;94.40;;;;;;5031427;28;20263;-40
2021/04/06 08:20:43;;;;;;;3.65;3.10;;;3.80;94.10;;;;;;5031513;28;20209;-40
2021/04/06 08:23:13;;;;;;;3.80;2.72;;;3.70;93.90;;;;;;5031322;28;20232;-38
2021/04/06 08:25:52;;;;;;;5.53;2.80;;;3.60;94.10;;;;;;5031577;28;20271;-39
2021/04/06 08:28:41;;;;;;;5.75;2.90;;;3.70;94.30;;;;;;5031436;28;20212;-38
2021/04/06 08:31:32;;;;;;;6.55;2.92;;;3.80;93.90;;;;;;5031456;28;20260;-39
2021/04/06 08:34:35;;;;;;;8.98;4.75;;;3.80;94.00;;;;;;5031349;28;20254;-39
2021/04/06 08:37:14;;;;;;;4.88;2.92;;;3.90;93.90;;;;;;5031313;28;20710;-40
2021/04/06 08:39:41;;;;;;;4.70;3.20;;;3.90;93.80;;;;;;5031592;28;20212;-40
2021/04/06 08:42:14;;;;;;;6.15;3.03;;;3.90;93.90;;;;;;5031533;28;20209;-39
2021/04/06 08:44:44;;;;;;;6.40;3.03;;;3.90;93.70;;;;;;5031320;28;20292;-39
2021/04/06 08:47:37;;;;;;;6.43;3.67;;;4.00;93.70;;;;;;5031362;28;20236;-39
2021/04/06 08:50:07;;;;;;;6.80;3.08;;;4.00;93.40;;;;;;5031183;28;20244;-40
2021/04/06 08:52:35;;;;;;;5.45;3.10;;;4.00;93.30;;;;;;5031511;28;20259;-39
2021/04/06 08:55:11;;;;;;;8.77;4.30;;;4.00;93.50;;;;;;5034407;28;20232;-39
2021/04/06 08:57:38;;;;;;;7.20;3.10;;;4.10;93.40;;;;;;5034585;28;20423;-39
2021/04/06 09:00:12;;;;;;;7.72;4.05;;;4.10;93.40;;;;;;5034565;28;20204;-40
2021/04/06 09:02:40;;;;;;;7.72;3.53;;;4.20;93.40;;;;;;5034687;28;20264;-39
2021/04/06 09:05:08;;;;;;;6.35;3.47;;;4.20;93.20;;;;;;5034727;28;20789;-40
2021/04/06 09:07:39;;;;;;;6.70;4.55;;;4.20;93.20;;;;;;5034721;28;20247;-40
2021/04/06 09:10:09;;;;;;;3.58;3.17;;;4.10;93.30;;;;;;5034523;28;20208;-39
2021/04/06 09:12:39;;;;;;;4.63;3.47;;;4.10;93.40;;;;;;5034335;28;20209;-40
2021/04/06 09:15:07;;;;;;;5.75;3.55;;;4.10;93.50;;;;;;5034208;28;20611;-38
2021/04/06 09:17:35;;;;;;;3.90;3.00;;;4.10;93.50;;;;;;5034332;28;20672;-38
2021/04/06 09:20:08;;;;;;;6.63;3.20;;;4.10;93.40;;;;;;5034348;28;20244;-40
2021/04/06 09:22:35;;;;;;;3.88;2.90;;;4.20;93.40;;;;;;5034109;28;20396;-40
2021/04/06 09:28:08;;;;;;;8.25;3.47;;;4.60;92.80;;;;;;4993556;28;20214;-39
2021/04/06 09:30:44;;;;;;;6.30;2.95;;;4.70;92.40;;;;;;4994816;28;20696;-39
2021/04/06 09:33:13;;;;;;;5.35;2.63;;;4.70;92.50;;;;;;4994709;28;20288;-39
2021/04/06 09:35:45;;;;;;;4.95;2.55;;;4.70;92.40;;;;;;4994760;28;20268;-36
2021/04/06 09:38:13;;;;;;;3.80;3.42;;;4.80;92.50;;;;;;4994696;28;20249;-39
2021/04/06 09:40:42;;;;;;;6.70;3.63;;;4.80;92.30;;;;;;4994439;28;20233;-39
2021/04/06 09:43:10;;;;;;;5.93;3.45;;;4.90;92.20;;;;;;4994446;28;20234;-40
2021/04/06 09:45:37;;;;;;;6.15;3.08;;;5.00;92.00;;;;;;4994521;28;20241;-40
2021/04/06 09:48:06;;;;;;;6.88;3.70;;;5.10;92.30;;;;;;4994310;28;20293;-39
2021/04/06 09:50:34;;;;;;;6.13;2.95;;;5.20;91.70;;;;;;4994441;28;20264;-40
2021/04/06 09:53:01;;;;;;;4.50;2.90;;;5.40;91.70;;;;;;4994351;28;20217;-40
2021/04/06 09:55:30;;;;;;;6.53;2.88;;;5.40;91.50;;;;;;4994341;28;20321;-40
2021/04/06 09:58:00;;;;;;;4.30;3.72;;;5.40;91.50;;;;;;4994234;28;20685;-38
2021/04/06 10:00:30;;;;;;;3.50;2.53;;;5.40;90.90;;;;;;4994137;28;20252;-39
2021/04/06 10:03:08;;;;;;;6.80;2.92;;;5.30;90.90;;;;;;4993894;28;20308;-39
2021/04/06 10:05:36;;;;;;;5.03;2.22;;;5.20;91.00;;;;;;4993647;28;20302;-40
2021/04/06 10:08:05;;;;;;;8.10;3.22;;;5.20;91.00;;;;;;4994229;28;20241;-40
2021/04/06 10:10:34;;;;;;;7.55;2.55;;;5.10;91.00;;;;;;4993983;28;20769;-40
2021/04/06 10:13:03;;;;;;;2.97;2.28;;;5.10;91.10;;;;;;4994108;28;20206;-40
2021/04/06 10:15:33;;;;;;;4.07;2.70;;;5.00;91.10;;;;;;4994234;28;20363;-41
2021/04/06 10:18:11;;;;;;;5.90;2.78;;;5.10;91.20;;;;;;4994005;28;20681;-41
2021/04/06 10:20:41;;;;;;;4.28;2.63;;;5.10;91.30;;;;;;4994078;28;20214;-39
2021/04/06 10:23:09;;;;;;;3.40;2.28;;;4.90;91.50;;;;;;4993847;28;20710;-40
2021/04/06 10:25:38;;;;;;;4.28;2.92;;;4.80;92.20;;;;;;4995218;28;20245;-44
2021/04/06 10:28:07;;;;;;;7.55;3.08;;;4.40;93.10;;;;;;5013608;28;20237;-39
2021/04/06 10:30:37;;;;;;;6.25;3.08;;;4.20;94.20;;;;;;5013410;28;20313;-39
2021/04/06 10:33:07;;;;;;;3.67;2.60;;;3.90;94.90;;;;;;5013232;28;20292;-44
2021/04/06 10:35:37;;;;;;;6.70;3.75;;;3.70;96.10;;;;;;5012972;28;20233;-39
2021/04/06 10:38:05;;;;;;;7.35;3.92;;;3.50;97.10;;;;;;5013507;28;20293;-39
2021/04/06 10:40:38;;;;;;;6.93;4.15;;;3.30;97.70;;;;;;5013117;28;20225;-39
2021/04/06 10:43:08;;;;;;;4.53;3.83;;;3.40;98.10;;;;;;5013283;28;20292;-40
2021/04/06 10:45:38;;;;;;;6.68;4.32;;;3.50;98.10;;;;;;5013344;28;20241;-40
2021/04/06 10:48:12;;;;;;;3.97;2.55;;;3.70;97.80;;;;;;5013086;28;20235;-40
2021/04/06 10:50:42;;;;;;;6.63;2.65;;;3.90;97.90;;;;;;5012765;28;20755;-39
2021/04/06 10:53:17;;;;;;;3.83;3.25;;;3.90;98.00;;;;;;5012755;28;20232;-40
2021/04/06 10:55:45;;;;;;;3.60;3.17;;;4.00;98.30;;;;;;5012741;28;20625;-38
2021/04/06 10:58:21;;;;;;;4.65;2.58;;;3.90;98.30;;;;;;5012882;28;20252;-39
2021/04/06 11:01:03;;;;;;;6.38;3.95;;;3.90;98.70;;;;;;5012851;28;20299;-39
2021/04/06 11:03:45;;;;;;;4.55;3.08;;;4.00;98.60;;;;;;5012671;28;20252;-38
2021/04/06 11:06:14;;;;;;;7.68;2.97;;;4.00;98.90;;;;;;5012753;28;20271;-38
2021/04/06 11:08:43;;;;;;;4.80;3.40;;;3.80;99.10;;;;;;5012636;28;20292;-39
2021/04/06 11:11:26;;;;;;;5.32;3.35;;;3.60;99.90;;;;;;5012528;28;20296;-39
2021/04/06 11:13:55;;;;;;;4.93;3.33;;;3.20;99.90;;;;;;5012635;28;20261;-39
2021/04/06 11:16:23;;;;;;;7.95;3.47;;;2.80;99.90;;;;;;5012239;28;20245;-39
2021/04/06 11:19:03;;;;;;;6.53;3.22;;;2.80;99.90;;;;;;5012091;28;20300;-39
2021/04/06 11:21:31;;;;;;;4.32;3.15;;;3.10;99.90;;;;;;5012189;28;20680;-39
2021/04/06 11:23:58;;;;;;;4.68;3.78;;;3.50;99.90;;;;;;5012296;28;20292;-39
2021/04/06 11:26:26;;;;;;;6.65;4.07;;;3.80;99.90;;;;;;5011900;28;20339;-39
2021/04/06 11:28:53;;;;;;;4.20;3.30;;;4.20;99.90;;;;;;5012307;28;20279;-39
2021/04/06 11:31:21;;;;;;;7.25;3.28;;;4.50;99.90;;;;;;5012049;28;20275;-39
2021/04/06 11:33:49;;;;;;;4.43;3.25;;;4.60;99.90;;;;;;5011894;28;20886;-40
2021/04/06 11:36:16;;;;;;;5.68;3.20;;;4.70;99.90;;;;;;5012011;28;20208;-39
2021/04/06 11:38:44;;;;;;;5.70;3.50;;;4.80;99.90;;;;;;5011975;28;20213;-39
2021/04/06 11:41:17;;;;;;;5.55;3.80;;;4.90;99.90;;;;;;5012094;28;20217;-40
2021/04/06 11:43:44;;;;;;;4.43;3.85;;;4.80;99.90;;;;;;5012003;28;20735;-39
2021/04/06 11:46:11;;;;;;;5.40;2.90;;;4.50;99.90;;;;;;5011683;28;20220;-39
2021/04/06 11:48:38;;;;;;;6.25;3.22;;;4.20;99.90;;;;;;5011841;28;20234;-38
2021/04/06 11:51:07;;;;;;;4.85;3.78;;;4.00;99.90;;;;;;5011716;28;20229;-38
2021/04/06 11:53:34;;;;;;;8.93;4.10;;;3.90;99.90;;;;;;5011858;28;20248;-38
2021/04/06 11:56:02;;;;;;;7.32;3.42;;;4.00;99.90;;;;;;5012012;28;20210;-38
2021/04/06 11:58:28;;;;;;;7.32;5.07;;;4.20;99.90;;;;;;5011968;28;20296;-39
2021/04/06 12:01:00;;;;;;;7.97;3.83;;;4.60;99.90;;;;;;5012291;28;20209;-40
2021/04/06 12:03:27;;;;;;;9.30;6.07;;;4.90;99.90;;;;;;5011820;28;20375;-39
2021/04/06 12:05:53;;;;;;;7.90;4.10;;;5.30;99.90;;;;;;5011650;28;20239;-40
2021/04/06 12:08:21;;;;;;;3.33;2.95;;;5.30;99.80;;;;;;5011919;28;20416;-40
2021/04/06 12:10:49;;;;;;;3.95;3.20;;;5.30;99.70;;;;;;5012018;28;20568;-38
2021/04/06 12:13:16;;;;;;;4.25;2.45;;;5.30;99.60;;;;;;5012240;28;20236;-39
2021/04/06 12:15:44;;;;;;;6.78;3.95;;;5.30;99.40;;;;;;5013614;28;20229;-39
2021/04/06 12:18:11;;;;;;;6.18;3.30;;;5.20;99.50;;;;;;5011702;28;20290;-39
2021/04/06 12:20:41;;;;;;;4.97;3.22;;;5.20;99.50;;;;;;5012043;28;20213;-39
2021/04/06 12:23:08;;;;;;;4.07;2.78;;;5.40;99.40;;;;;;5012373;28;20252;-39
2021/04/06 12:25:36;;;;;;;3.90;2.10;;;5.60;98.50;;;;;;5013036;28;20209;-39
2021/04/06 12:28:04;;;;;;;4.75;2.63;;;5.80;98.10;;;;;;5013464;28;20244;-40
2021/04/06 12:30:31;;;;;;;4.28;2.95;;;6.00;97.90;;;;;;5016687;28;20687;-39
2021/04/06 12:32:58;;;;;;;6.70;3.35;;;6.20;97.70;;;;;;5016897;28;20304;-39
2021/04/06 12:35:25;;;;;;;5.40;2.80;;;6.30;97.30;;;;;;5016812;28;20244;-40
2021/04/06 12:37:52;;;;;;;3.50;2.67;;;6.20;97.40;;;;;;5017281;28;20209;-39
2021/04/06 12:40:19;;;;;;;5.53;3.00;;;6.20;97.40;;;;;;5016464;28;20263;-40
2021/04/06 12:42:47;;;;;;;5.68;3.15;;;6.00;97.40;;;;;;5016435;28;20209;-40
2021/04/06 12:45:17;;;;;;;3.53;2.60;;;6.00;97.40;;;;;;5016115;28;20220;-40
2021/04/06 12:47:45;;;;;;;5.35;2.67;;;5.80;97.20;;;;;;5016307;28;20680;-40
2021/04/06 12:50:13;;;;;;;6.38;2.70;;;5.60;97.80;;;;;;5016516;28;20278;-40
2021/04/06 12:52:40;;;;;;;3.97;2.80;;;5.60;98.00;;;;;;5016331;28;20209;-40
2021/04/06 12:55:08;;;;;;;3.72;3.38;;;5.60;98.00;;;;;;5015579;28;20229;-40
2021/04/06 12:57:36;;;;;;;3.92;2.53;;;5.50;97.60;;;;;;5015993;28;20260;-40
2021/04/06 13:00:06;;;;;;;5.80;3.00;;;5.50;97.80;;;;;;5016182;28;20221;-41
2021/04/06 13:02:34;;;;;;;4.60;2.85;;;5.50;97.60;;;;;;5016642;28;20218;-39
2021/04/06 13:05:01;;;;;;;4.90;2.58;;;5.40;97.70;;;;;;5016083;28;20312;-39
2021/04/06 13:07:28;;;;;;;4.80;3.22;;;5.20;97.60;;;;;;5015926;28;20619;-39
2021/04/06 13:09:55;;;;;;;4.20;3.65;;;5.10;97.80;;;;;;5015722;28;20213;-40
2021/04/06 13:12:23;;;;;;;2.88;2.30;;;5.10;97.80;;;;;;5016009;28;20209;-40
2021/04/06 13:14:50;;;;;;;7.45;3.08;;;5.00;97.70;;;;;;5015908;28;20645;-39
2021/04/06 13:17:18;;;;;;;7.05;5.35;;;4.90;97.90;;;;;;5016027;28;20205;-39
2021/04/06 13:19:45;;;;;;;9.05;5.45;;;4.90;97.70;;;;;;5015610;28;20213;-39
2021/04/06 13:22:13;;;;;;;7.90;4.15;;;4.80;97.90;;;;;;5015438;28;20205;-40
2021/04/06 13:24:40;;;;;;;8.07;3.38;;;5.00;97.80;;;;;;5015580;28;20583;-40
2021/04/06 13:27:07;;;;;;;4.13;2.75;;;5.30;97.30;;;;;;5015638;28;20245;-39
2021/04/06 13:29:34;;;;;;;2.92;2.72;;;5.60;96.80;;;;;;5015608;28;20213;-40
2021/04/06 13:32:02;;;;;;;4.68;3.08;;;5.80;96.50;;;;;;5014433;28;20210;-39